sensor_id;sensor_type;location;lat;lon;timestamp;temperature;humidity
35463;DHT22;21578;47.892;9.970;2023-01-15T00:02:55;7.10;81.80
35463;DHT22;21578;47.892;9.970;2023-01-15T00:07:41;7.00;82.40
35463;DHT22;21578;47.892;9.970;2023-01-15T00:12:30;7.00;82.80
35463;DHT22;21578;47.892;9.970;2023-01-15T00:17:17;7.00;82.20
35463;DHT22;21578;47.892;9.970;2023-01-15T00:22:04;7.00;81.20
35463;DHT22;21578;47.892;9.970;2023-01-15T00:26:50;7.10;80.50
35463;DHT22;21578;47.892;9.970;2023-01-15T00:31:59;7.20;79.50
35463;DHT22;21578;47.892;9.970;2023-01-15T00:36:46;7.20;79.60
35463;DHT22;21578;47.892;9.970;2023-01-15T00:41:33;7.40;78.00
35463;DHT22;21578;47.892;9.970;2023-01-15T00:46:20;7.60;78.90
35463;DHT22;21578;47.892;9.970;2023-01-15T00:51:08;7.40;80.40
35463;DHT22;21578;47.892;9.970;2023-01-15T00:55:55;7.30;81.00
35463;DHT22;21578;47.892;9.970;2023-01-15T01:00:42;7.30;81.00
35463;DHT22;21578;47.892;9.970;2023-01-15T01:05:30;7.20;81.70
35463;DHT22;21578;47.892;9.970;2023-01-15T01:10:19;7.30;81.70
35463;DHT22;21578;47.892;9.970;2023-01-15T01:15:07;7.30;81.70
35463;DHT22;21578;47.892;9.970;2023-01-15T01:19:55;7.50;81.00
35463;DHT22;21578;47.892;9.970;2023-01-15T01:24:42;7.60;81.80
35463;DHT22;21578;47.892;9.970;2023-01-15T01:29:30;7.50;82.30
35463;DHT22;21578;47.892;9.970;2023-01-15T01:34:17;7.50;84.10
35463;DHT22;21578;47.892;9.970;2023-01-15T01:39:05;7.40;85.60
35463;DHT22;21578;47.892;9.970;2023-01-15T01:43:56;7.40;86.90
35463;DHT22;21578;47.892;9.970;2023-01-15T01:48:44;7.50;86.30
35463;DHT22;21578;47.892;9.970;2023-01-15T01:53:32;7.70;85.40
35463;DHT22;21578;47.892;9.970;2023-01-15T01:58:20;7.70;85.60
35463;DHT22;21578;47.892;9.970;2023-01-15T02:03:08;8.20;83.50
35463;DHT22;21578;47.892;9.970;2023-01-15T02:07:56;8.10;84.50
35463;DHT22;21578;47.892;9.970;2023-01-15T02:12:47;8.00;85.00
35463;DHT22;21578;47.892;9.970;2023-01-15T02:17:41;8.10;84.20
35463;DHT22;21578;47.892;9.970;2023-01-15T02:22:38;8.20;84.10
35463;DHT22;21578;47.892;9.970;2023-01-15T02:27:28;8.10;85.10
35463;DHT22;21578;47.892;9.970;2023-01-15T02:32:19;8.10;85.20
35463;DHT22;21578;47.892;9.970;2023-01-15T02:37:09;8.20;84.00
35463;DHT22;21578;47.892;9.970;2023-01-15T02:42:01;8.20;84.40
35463;DHT22;21578;47.892;9.970;2023-01-15T02:46:51;8.10;85.90
35463;DHT22;21578;47.892;9.970;2023-01-15T02:51:43;8.10;85.70
35463;DHT22;21578;47.892;9.970;2023-01-15T02:56:33;8.00;86.20
35463;DHT22;21578;47.892;9.970;2023-01-15T03:01:25;7.90;87.20
35463;DHT22;21578;47.892;9.970;2023-01-15T03:06:17;7.80;87.80
35463;DHT22;21578;47.892;9.970;2023-01-15T03:11:07;7.90;88.00
35463;DHT22;21578;47.892;9.970;2023-01-15T03:15:57;7.90;88.30
35463;DHT22;21578;47.892;9.970;2023-01-15T03:21:08;7.90;88.20
35463;DHT22;21578;47.892;9.970;2023-01-15T03:25:57;7.90;88.30
35463;DHT22;21578;47.892;9.970;2023-01-15T03:30:44;7.80;88.80
35463;DHT22;21578;47.892;9.970;2023-01-15T03:35:47;7.80;89.60
35463;DHT22;21578;47.892;9.970;2023-01-15T03:40:36;7.70;90.30
35463;DHT22;21578;47.892;9.970;2023-01-15T03:45:29;7.90;88.80
35463;DHT22;21578;47.892;9.970;2023-01-15T03:50:23;7.80;90.00
35463;DHT22;21578;47.892;9.970;2023-01-15T03:55:15;7.80;89.60
35463;DHT22;21578;47.892;9.970;2023-01-15T04:00:08;7.80;89.90
35463;DHT22;21578;47.892;9.970;2023-01-15T04:04:59;7.80;90.50
35463;DHT22;21578;47.892;9.970;2023-01-15T04:09:46;7.90;89.70
35463;DHT22;21578;47.892;9.970;2023-01-15T04:14:34;7.90;89.90
35463;DHT22;21578;47.892;9.970;2023-01-15T04:19:21;7.80;90.50
35463;DHT22;21578;47.892;9.970;2023-01-15T04:24:09;7.80;90.80
35463;DHT22;21578;47.892;9.970;2023-01-15T04:28:56;7.90;91.40
35463;DHT22;21578;47.892;9.970;2023-01-15T04:33:43;8.10;92.10
35463;DHT22;21578;47.892;9.970;2023-01-15T04:38:29;8.10;93.10
35463;DHT22;21578;47.892;9.970;2023-01-15T04:43:18;8.40;94.50
35463;DHT22;21578;47.892;9.970;2023-01-15T04:48:22;8.60;95.70
35463;DHT22;21578;47.892;9.970;2023-01-15T04:53:09;8.80;96.60
35463;DHT22;21578;47.892;9.970;2023-01-15T04:57:56;8.60;96.40
35463;DHT22;21578;47.892;9.970;2023-01-15T05:02:44;8.50;95.60
35463;DHT22;21578;47.892;9.970;2023-01-15T05:07:31;8.50;95.30
35463;DHT22;21578;47.892;9.970;2023-01-15T05:12:18;8.40;95.40
35463;DHT22;21578;47.892;9.970;2023-01-15T05:17:04;8.30;94.90
35463;DHT22;21578;47.892;9.970;2023-01-15T05:21:53;8.20;95.00
35463;DHT22;21578;47.892;9.970;2023-01-15T05:26:40;8.00;95.00
35463;DHT22;21578;47.892;9.970;2023-01-15T05:31:28;8.00;95.80
35463;DHT22;21578;47.892;9.970;2023-01-15T05:36:18;7.90;96.60
35463;DHT22;21578;47.892;9.970;2023-01-15T05:41:07;7.80;96.60
35463;DHT22;21578;47.892;9.970;2023-01-15T05:46:09;7.70;96.60
35463;DHT22;21578;47.892;9.970;2023-01-15T05:50:55;7.60;96.60
35463;DHT22;21578;47.892;9.970;2023-01-15T05:55:42;7.50;96.60
35463;DHT22;21578;47.892;9.970;2023-01-15T06:00:30;7.40;96.60
35463;DHT22;21578;47.892;9.970;2023-01-15T06:05:17;7.40;96.60
35463;DHT22;21578;47.892;9.970;2023-01-15T06:10:06;7.30;96.60
35463;DHT22;21578;47.892;9.970;2023-01-15T06:14:53;7.20;96.60
35463;DHT22;21578;47.892;9.970;2023-01-15T06:19:41;7.10;96.60
35463;DHT22;21578;47.892;9.970;2023-01-15T06:24:28;7.10;96.60
35463;DHT22;21578;47.892;9.970;2023-01-15T06:29:15;7.10;96.60
35463;DHT22;21578;47.892;9.970;2023-01-15T06:34:03;7.10;96.60
35463;DHT22;21578;47.892;9.970;2023-01-15T06:38:51;7.00;96.60
35463;DHT22;21578;47.892;9.970;2023-01-15T06:43:38;7.00;96.60
35463;DHT22;21578;47.892;9.970;2023-01-15T06:48:42;7.00;96.60
35463;DHT22;21578;47.892;9.970;2023-01-15T06:53:31;7.00;96.60
35463;DHT22;21578;47.892;9.970;2023-01-15T06:58:20;7.10;96.60
35463;DHT22;21578;47.892;9.970;2023-01-15T07:57:36;6.80;96.60
35463;DHT22;21578;47.892;9.970;2023-01-15T08:02:23;7.10;96.60
35463;DHT22;21578;47.892;9.970;2023-01-15T08:07:10;7.30;96.60
35463;DHT22;21578;47.892;9.970;2023-01-15T08:11:58;7.30;96.60
35463;DHT22;21578;47.892;9.970;2023-01-15T08:17:04;7.50;96.60
35463;DHT22;21578;47.892;9.970;2023-01-15T08:21:51;7.60;96.60
35463;DHT22;21578;47.892;9.970;2023-01-15T08:26:38;7.80;96.60
35463;DHT22;21578;47.892;9.970;2023-01-15T08:31:25;7.80;96.60
35463;DHT22;21578;47.892;9.970;2023-01-15T08:36:13;7.70;96.60
35463;DHT22;21578;47.892;9.970;2023-01-15T08:41:01;7.80;96.60
35463;DHT22;21578;47.892;9.970;2023-01-15T08:45:48;7.80;96.60
35463;DHT22;21578;47.892;9.970;2023-01-15T08:50:35;8.00;96.60
35463;DHT22;21578;47.892;9.970;2023-01-15T08:55:23;8.10;96.60
35463;DHT22;21578;47.892;9.970;2023-01-15T09:00:11;8.20;96.60
35463;DHT22;21578;47.892;9.970;2023-01-15T09:04:59;8.20;96.60
35463;DHT22;21578;47.892;9.970;2023-01-15T09:09:46;8.30;96.60
35463;DHT22;21578;47.892;9.970;2023-01-15T09:14:34;8.50;96.60
35463;DHT22;21578;47.892;9.970;2023-01-15T09:19:21;8.40;96.60
35463;DHT22;21578;47.892;9.970;2023-01-15T09:24:08;8.10;96.60
35463;DHT22;21578;47.892;9.970;2023-01-15T09:28:55;8.20;96.60
35463;DHT22;21578;47.892;9.970;2023-01-15T09:33:44;8.20;96.60
35463;DHT22;21578;47.892;9.970;2023-01-15T09:38:31;8.20;96.60
35463;DHT22;21578;47.892;9.970;2023-01-15T09:43:32;8.20;96.60
35463;DHT22;21578;47.892;9.970;2023-01-15T09:48:32;7.60;96.60
35463;DHT22;21578;47.892;9.970;2023-01-15T09:53:35;5.90;96.60
35463;DHT22;21578;47.892;9.970;2023-01-15T09:58:30;5.50;96.60
35463;DHT22;21578;47.892;9.970;2023-01-15T10:03:28;5.30;96.60
35463;DHT22;21578;47.892;9.970;2023-01-15T10:08:18;5.10;96.60
35463;DHT22;21578;47.892;9.970;2023-01-15T10:13:16;5.00;96.60
35463;DHT22;21578;47.892;9.970;2023-01-15T10:18:13;4.90;96.60
35463;DHT22;21578;47.892;9.970;2023-01-15T10:23:24;4.90;96.60
35463;DHT22;21578;47.892;9.970;2023-01-15T10:28:19;4.80;96.60
35463;DHT22;21578;47.892;9.970;2023-01-15T10:33:26;4.60;96.60
35463;DHT22;21578;47.892;9.970;2023-01-15T10:38:21;4.60;96.60
35463;DHT22;21578;47.892;9.970;2023-01-15T10:43:14;4.50;96.60
35463;DHT22;21578;47.892;9.970;2023-01-15T10:48:11;4.40;96.60
35463;DHT22;21578;47.892;9.970;2023-01-15T10:53:04;4.30;96.60
35463;DHT22;21578;47.892;9.970;2023-01-15T10:57:58;4.30;96.60
35463;DHT22;21578;47.892;9.970;2023-01-15T11:02:49;4.20;96.60
35463;DHT22;21578;47.892;9.970;2023-01-15T11:07:41;4.10;96.60
35463;DHT22;21578;47.892;9.970;2023-01-15T11:12:30;4.10;96.60
35463;DHT22;21578;47.892;9.970;2023-01-15T11:17:36;4.00;96.60
35463;DHT22;21578;47.892;9.970;2023-01-15T11:22:43;4.10;96.60
35463;DHT22;21578;47.892;9.970;2023-01-15T11:27:31;4.00;96.60
35463;DHT22;21578;47.892;9.970;2023-01-15T11:32:23;4.00;96.60
35463;DHT22;21578;47.892;9.970;2023-01-15T11:37:10;4.10;96.60
35463;DHT22;21578;47.892;9.970;2023-01-15T11:42:00;4.10;96.60
35463;DHT22;21578;47.892;9.970;2023-01-15T11:47:09;4.00;96.60
35463;DHT22;21578;47.892;9.970;2023-01-15T11:52:16;3.80;96.60
35463;DHT22;21578;47.892;9.970;2023-01-15T11:57:05;3.80;96.60
35463;DHT22;21578;47.892;9.970;2023-01-15T12:01:54;3.80;96.60
35463;DHT22;21578;47.892;9.970;2023-01-15T12:06:44;3.80;96.60
35463;DHT22;21578;47.892;9.970;2023-01-15T12:11:46;3.70;96.60
35463;DHT22;21578;47.892;9.970;2023-01-15T12:16:43;3.60;96.60
35463;DHT22;21578;47.892;9.970;2023-01-15T12:21:45;3.30;96.60
35463;DHT22;21578;47.892;9.970;2023-01-15T12:26:37;3.20;96.60
35463;DHT22;21578;47.892;9.970;2023-01-15T12:31:30;3.10;96.60
35463;DHT22;21578;47.892;9.970;2023-01-15T12:36:23;3.10;96.60
35463;DHT22;21578;47.892;9.970;2023-01-15T12:41:13;3.20;96.60
35463;DHT22;21578;47.892;9.970;2023-01-15T12:46:02;3.20;96.60
35463;DHT22;21578;47.892;9.970;2023-01-15T12:50:53;3.30;96.60
35463;DHT22;21578;47.892;9.970;2023-01-15T12:55:44;3.30;96.60
35463;DHT22;21578;47.892;9.970;2023-01-15T13:00:36;3.20;96.60
35463;DHT22;21578;47.892;9.970;2023-01-15T13:05:28;3.20;96.60
35463;DHT22;21578;47.892;9.970;2023-01-15T13:10:18;3.00;96.60
35463;DHT22;21578;47.892;9.970;2023-01-15T13:15:12;3.00;96.60
35463;DHT22;21578;47.892;9.970;2023-01-15T13:20:14;3.10;96.60
35463;DHT22;21578;47.892;9.970;2023-01-15T13:25:20;3.10;96.60
35463;DHT22;21578;47.892;9.970;2023-01-15T13:30:27;3.10;96.60
35463;DHT22;21578;47.892;9.970;2023-01-15T13:35:26;3.20;96.60
35463;DHT22;21578;47.892;9.970;2023-01-15T13:40:20;3.10;96.60
35463;DHT22;21578;47.892;9.970;2023-01-15T13:45:26;3.00;96.60
35463;DHT22;21578;47.892;9.970;2023-01-15T13:50:18;2.90;96.60
35463;DHT22;21578;47.892;9.970;2023-01-15T13:55:11;2.80;96.60
35463;DHT22;21578;47.892;9.970;2023-01-15T13:59:59;2.70;96.60
35463;DHT22;21578;47.892;9.970;2023-01-15T14:04:47;2.70;96.60
35463;DHT22;21578;47.892;9.970;2023-01-15T14:09:34;2.70;96.60
35463;DHT22;21578;47.892;9.970;2023-01-15T14:14:55;2.70;96.60
35463;DHT22;21578;47.892;9.970;2023-01-15T14:20:12;2.70;96.60
35463;DHT22;21578;47.892;9.970;2023-01-15T14:25:16;2.70;96.60
35463;DHT22;21578;47.892;9.970;2023-01-15T14:30:39;2.70;96.60
35463;DHT22;21578;47.892;9.970;2023-01-15T14:35:35;2.70;96.60
35463;DHT22;21578;47.892;9.970;2023-01-15T14:40:24;2.60;96.60
35463;DHT22;21578;47.892;9.970;2023-01-15T14:45:20;2.70;96.60
35463;DHT22;21578;47.892;9.970;2023-01-15T14:50:24;2.60;96.60
35463;DHT22;21578;47.892;9.970;2023-01-15T14:55:14;2.50;96.60
35463;DHT22;21578;47.892;9.970;2023-01-15T15:00:03;2.50;96.60
35463;DHT22;21578;47.892;9.970;2023-01-15T15:04:53;2.50;96.60
35463;DHT22;21578;47.892;9.970;2023-01-15T15:09:43;2.50;96.60
35463;DHT22;21578;47.892;9.970;2023-01-15T15:14:36;2.50;96.60
35463;DHT22;21578;47.892;9.970;2023-01-15T15:19:27;2.40;96.60
35463;DHT22;21578;47.892;9.970;2023-01-15T15:24:22;2.40;96.60
35463;DHT22;21578;47.892;9.970;2023-01-15T15:29:12;2.40;96.60
35463;DHT22;21578;47.892;9.970;2023-01-15T15:34:00;2.40;96.60
35463;DHT22;21578;47.892;9.970;2023-01-15T15:38:51;2.40;96.60
35463;DHT22;21578;47.892;9.970;2023-01-15T15:43:43;2.40;96.60
35463;DHT22;21578;47.892;9.970;2023-01-15T15:48:56;2.40;96.60
35463;DHT22;21578;47.892;9.970;2023-01-15T15:53:44;2.40;96.60
35463;DHT22;21578;47.892;9.970;2023-01-15T15:58:35;2.40;96.60
35463;DHT22;21578;47.892;9.970;2023-01-15T16:03:25;2.30;96.60
35463;DHT22;21578;47.892;9.970;2023-01-15T16:08:17;2.30;96.60
35463;DHT22;21578;47.892;9.970;2023-01-15T16:13:11;2.40;96.60
35463;DHT22;21578;47.892;9.970;2023-01-15T16:18:00;2.30;96.60
35463;DHT22;21578;47.892;9.970;2023-01-15T16:22:52;2.30;96.60
35463;DHT22;21578;47.892;9.970;2023-01-15T16:27:40;2.30;96.60
35463;DHT22;21578;47.892;9.970;2023-01-15T16:32:31;2.30;96.60
35463;DHT22;21578;47.892;9.970;2023-01-15T16:37:24;2.30;96.60
35463;DHT22;21578;47.892;9.970;2023-01-15T16:42:25;2.30;96.60
35463;DHT22;21578;47.892;9.970;2023-01-15T16:47:20;2.30;96.60
35463;DHT22;21578;47.892;9.970;2023-01-15T16:52:35;2.20;96.60
35463;DHT22;21578;47.892;9.970;2023-01-15T16:57:26;2.20;96.60
35463;DHT22;21578;47.892;9.970;2023-01-15T17:02:15;2.10;96.60
35463;DHT22;21578;47.892;9.970;2023-01-15T17:07:04;2.10;96.60
35463;DHT22;21578;47.892;9.970;2023-01-15T17:11:53;2.10;96.60
35463;DHT22;21578;47.892;9.970;2023-01-15T17:16:40;2.10;96.60
35463;DHT22;21578;47.892;9.970;2023-01-15T17:21:27;2.00;96.60
35463;DHT22;21578;47.892;9.970;2023-01-15T17:26:17;1.90;96.60
35463;DHT22;21578;47.892;9.970;2023-01-15T17:31:17;1.90;96.60
35463;DHT22;21578;47.892;9.970;2023-01-15T17:36:07;1.90;96.60
35463;DHT22;21578;47.892;9.970;2023-01-15T17:40:54;1.90;96.60
35463;DHT22;21578;47.892;9.970;2023-01-15T17:45:43;1.80;96.60
35463;DHT22;21578;47.892;9.970;2023-01-15T17:50:32;1.70;96.60
35463;DHT22;21578;47.892;9.970;2023-01-15T17:55:20;1.80;96.60
35463;DHT22;21578;47.892;9.970;2023-01-15T18:00:25;1.80;96.60
35463;DHT22;21578;47.892;9.970;2023-01-15T18:05:31;1.70;96.60
35463;DHT22;21578;47.892;9.970;2023-01-15T18:10:20;1.80;96.60
35463;DHT22;21578;47.892;9.970;2023-01-15T18:15:07;1.70;96.60
35463;DHT22;21578;47.892;9.970;2023-01-15T18:19:54;1.70;96.60
35463;DHT22;21578;47.892;9.970;2023-01-15T18:24:42;1.70;96.60
35463;DHT22;21578;47.892;9.970;2023-01-15T18:29:29;1.70;96.60
35463;DHT22;21578;47.892;9.970;2023-01-15T18:34:16;1.60;96.60
35463;DHT22;21578;47.892;9.970;2023-01-15T18:39:03;1.50;96.60
35463;DHT22;21578;47.892;9.970;2023-01-15T18:43:53;1.50;96.60
35463;DHT22;21578;47.892;9.970;2023-01-15T18:48:57;1.50;96.60
35463;DHT22;21578;47.892;9.970;2023-01-15T18:53:47;1.50;96.60
35463;DHT22;21578;47.892;9.970;2023-01-15T18:58:34;1.50;96.60
35463;DHT22;21578;47.892;9.970;2023-01-15T19:03:22;1.40;96.60
35463;DHT22;21578;47.892;9.970;2023-01-15T19:08:10;1.60;96.60
35463;DHT22;21578;47.892;9.970;2023-01-15T19:12:57;1.60;96.60
35463;DHT22;21578;47.892;9.970;2023-01-15T19:18:09;1.50;96.60
35463;DHT22;21578;47.892;9.970;2023-01-15T19:41:09;1.40;96.60
35463;DHT22;21578;47.892;9.970;2023-01-15T19:46:14;1.40;96.60
35463;DHT22;21578;47.892;9.970;2023-01-15T19:51:18;1.40;96.60
35463;DHT22;21578;47.892;9.970;2023-01-15T19:56:06;1.30;96.60
35463;DHT22;21578;47.892;9.970;2023-01-15T20:00:54;1.30;96.60
35463;DHT22;21578;47.892;9.970;2023-01-15T20:05:42;1.30;96.60
35463;DHT22;21578;47.892;9.970;2023-01-15T20:10:30;1.20;96.60
35463;DHT22;21578;47.892;9.970;2023-01-15T20:15:19;1.30;96.60
35463;DHT22;21578;47.892;9.970;2023-01-15T20:20:09;1.20;96.60
35463;DHT22;21578;47.892;9.970;2023-01-15T20:24:56;1.30;96.60
35463;DHT22;21578;47.892;9.970;2023-01-15T20:29:44;1.20;96.60
35463;DHT22;21578;47.892;9.970;2023-01-15T20:34:32;1.20;96.60
35463;DHT22;21578;47.892;9.970;2023-01-15T20:39:24;1.20;96.60
35463;DHT22;21578;47.892;9.970;2023-01-15T20:44:11;1.20;96.60
35463;DHT22;21578;47.892;9.970;2023-01-15T20:49:15;1.30;96.60
35463;DHT22;21578;47.892;9.970;2023-01-15T20:54:13;1.20;96.60
35463;DHT22;21578;47.892;9.970;2023-01-15T20:59:02;1.20;96.60
35463;DHT22;21578;47.892;9.970;2023-01-15T21:03:49;1.20;96.60
35463;DHT22;21578;47.892;9.970;2023-01-15T21:08:36;1.20;96.60
35463;DHT22;21578;47.892;9.970;2023-01-15T21:13:25;1.10;96.60
35463;DHT22;21578;47.892;9.970;2023-01-15T21:18:13;1.10;96.60
35463;DHT22;21578;47.892;9.970;2023-01-15T21:23:00;1.10;96.60
35463;DHT22;21578;47.892;9.970;2023-01-15T21:27:47;1.00;96.60
35463;DHT22;21578;47.892;9.970;2023-01-15T21:32:34;1.00;96.60
35463;DHT22;21578;47.892;9.970;2023-01-15T21:37:23;1.10;96.60
35463;DHT22;21578;47.892;9.970;2023-01-15T21:42:14;1.10;96.60
35463;DHT22;21578;47.892;9.970;2023-01-15T21:47:19;1.00;96.60
35463;DHT22;21578;47.892;9.970;2023-01-15T21:52:07;1.10;96.60
35463;DHT22;21578;47.892;9.970;2023-01-15T21:56:56;1.10;96.60
35463;DHT22;21578;47.892;9.970;2023-01-15T22:01:43;1.00;96.60
35463;DHT22;21578;47.892;9.970;2023-01-15T22:06:30;1.10;96.60
35463;DHT22;21578;47.892;9.970;2023-01-15T22:11:17;1.00;96.60
35463;DHT22;21578;47.892;9.970;2023-01-15T22:16:06;1.00;96.60
35463;DHT22;21578;47.892;9.970;2023-01-15T22:20:57;1.00;96.60
35463;DHT22;21578;47.892;9.970;2023-01-15T22:25:44;1.00;96.60
35463;DHT22;21578;47.892;9.970;2023-01-15T22:30:31;0.90;96.60
35463;DHT22;21578;47.892;9.970;2023-01-15T22:35:23;0.90;96.60
35463;DHT22;21578;47.892;9.970;2023-01-15T22:40:12;0.90;96.60
35463;DHT22;21578;47.892;9.970;2023-01-15T22:44:59;1.00;96.60
35463;DHT22;21578;47.892;9.970;2023-01-15T22:49:48;0.90;96.60
35463;DHT22;21578;47.892;9.970;2023-01-15T22:54:37;0.90;96.60
35463;DHT22;21578;47.892;9.970;2023-01-15T22:59:24;0.90;96.60
35463;DHT22;21578;47.892;9.970;2023-01-15T23:04:13;0.90;96.60
35463;DHT22;21578;47.892;9.970;2023-01-15T23:09:01;0.80;96.60
35463;DHT22;21578;47.892;9.970;2023-01-15T23:13:50;0.80;96.60
35463;DHT22;21578;47.892;9.970;2023-01-15T23:18:37;0.80;96.60
35463;DHT22;21578;47.892;9.970;2023-01-15T23:23:24;0.80;96.60
35463;DHT22;21578;47.892;9.970;2023-01-15T23:28:11;0.80;96.60
35463;DHT22;21578;47.892;9.970;2023-01-15T23:32:59;0.60;96.60
35463;DHT22;21578;47.892;9.970;2023-01-15T23:37:46;0.60;96.60
35463;DHT22;21578;47.892;9.970;2023-01-15T23:42:33;0.60;96.60
35463;DHT22;21578;47.892;9.970;2023-01-15T23:47:38;0.60;96.60
35463;DHT22;21578;47.892;9.970;2023-01-15T23:52:26;0.60;96.60
35463;DHT22;21578;47.892;9.970;2023-01-15T23:57:14;0.60;96.60
